Time;durP1;ratioP1;P1;durP2;ratioP2;P2;SDS_P1;SDS_P2;PMS_P1;PMS_P2;Temp;Humidity;BMP_temperature;BMP_pressure;BME280_temperature;BME280_humidity;BME280_pressure;Samples;Min_cycle;Max_cycle;Signal;HPM_P1;HPM_P2
2021/03/12 00:02:01;;;;;;;;;;;;;;;5.64;98.79;97662.56;5014876;28;20329;-82
2021/03/12 00:04:26;;;;;;;;;;;;;;;5.83;97.61;97650.81;5017122;28;19925;-82
2021/03/12 00:06:51;;;;;;;;;;;;;;;5.69;97.85;97665.78;5032559;28;19920;-82
2021/03/12 00:09:17;;;;;;;;;;;;;;;5.92;96.75;97647.09;4992424;28;20275;-81
2021/03/12 00:11:42;;;;;;;;;;;;;;;5.83;96.06;97657.66;5005931;28;19921;-82
2021/03/12 00:14:08;;;;;;;;;;;;;;;5.56;96.15;97655.13;5030081;28;19932;-80
2021/03/12 00:16:33;;;;;;;;;;;;;;;6.03;95.10;97657.81;4998268;28;19917;-79
2021/03/12 00:18:58;;;;;;;;;;;;;;;5.81;95.94;97660.25;4990664;28;19916;-79
2021/03/12 00:21:24;;;;;;;;;;;;;;;5.61;95.66;97677.97;5020217;28;19920;-78
2021/03/12 00:23:50;;;;;;;;;;;;;;;6.06;93.77;97667.09;4999365;28;19925;-83
2021/03/12 00:26:15;;;;;;;;;;;;;;;5.73;94.91;97675.03;5005731;28;19928;-81
2021/03/12 00:28:41;;;;;;;;;;;;;;;5.79;95.11;97669.72;4989359;28;19913;-79
2021/03/12 00:31:06;;;;;;;;;;;;;;;5.65;95.35;97687.19;4990743;28;19925;-80
2021/03/12 00:33:32;;;;;;;;;;;;;;;5.91;95.28;97680.38;4991660;28;19925;-81
2021/03/12 00:35:57;;;;;;;;;;;;;;;5.58;95.88;97678.06;4989166;28;19957;-81
2021/03/12 00:38:23;;;;;;;;;;;;;;;5.43;95.83;97695.56;4989623;28;21034;-79
2021/03/12 00:40:53;;;;;;;;;;;;;;;5.65;94.27;97689.75;4991722;28;19932;-81
2021/03/12 00:43:19;;;;;;;;;;;;;;;5.71;93.60;97694.66;4981795;28;20353;-83
2021/03/12 00:45:46;;;;;;;;;;;;;;;5.51;93.93;97702.16;4989456;28;19921;-82
2021/03/12 00:48:11;;;;;;;;;;;;;;;5.85;93.50;97712.91;4991288;28;19963;-78
2021/03/12 00:50:38;;;;;;;;;;;;;;;5.72;93.98;97721.88;4990380;28;20341;-79
2021/03/12 00:53:04;;;;;;;;;;;;;;;5.99;92.62;97719.31;4981730;28;19921;-81
2021/03/12 00:55:29;;;;;;;;;;;;;;;6.15;91.72;97712.78;4996536;28;19963;-80
2021/03/12 00:57:55;;;;;;;;;;;;;;;5.89;92.52;97730.72;5005739;28;19921;-80
2021/03/12 01:00:24;;;;;;;;;;;;;;;5.81;92.09;97726.66;4986807;28;19921;-79
2021/03/12 01:02:49;;;;;;;;;;;;;;;5.92;92.21;97738.25;5004088;28;19936;-79
2021/03/12 01:05:15;;;;;;;;;;;;;;;6.11;91.73;97734.22;5003998;28;19933;-82
2021/03/12 01:07:40;;;;;;;;;;;;;;;5.66;92.51;97734.84;5004956;28;19917;-82
2021/03/12 01:10:06;;;;;;;;;;;;;;;5.65;93.08;97738.28;5004415;28;19917;-81
2021/03/12 01:12:31;;;;;;;;;;;;;;;5.64;92.94;97741.72;5004228;28;20399;-78
2021/03/12 01:14:57;;;;;;;;;;;;;;;5.71;91.92;97750.84;5004571;28;19917;-80
2021/03/12 01:17:22;;;;;;;;;;;;;;;5.54;92.14;97750.56;5021876;28;20413;-82
2021/03/12 01:19:48;;;;;;;;;;;;;;;5.42;92.92;97759.44;4989853;28;19940;-80
2021/03/12 01:22:13;;;;;;;;;;;;;;;5.41;94.00;97753.50;5021483;28;19920;-81
2021/03/12 01:24:38;;;;;;;;;;;;;;;5.47;92.61;97766.97;5015217;28;19925;-78
2021/03/12 01:27:04;;;;;;;;;;;;;;;5.36;93.28;97754.50;5048494;28;19921;-77
2021/03/12 01:29:29;;;;;;;;;;;;;;;5.49;92.94;97767.75;5024089;28;19917;-80
2021/03/12 01:31:55;;;;;;;;;;;;;;;5.43;92.66;97767.06;5048897;28;19927;-80
2021/03/12 01:34:20;;;;;;;;;;;;;;;5.60;92.69;97763.13;5050223;28;19931;-78
2021/03/12 01:36:46;;;;;;;;;;;;;;;5.47;92.85;97767.78;5048462;28;19925;-82
2021/03/12 01:39:11;;;;;;;;;;;;;;;5.36;93.78;97775.81;5032368;28;19951;-81
2021/03/12 01:41:36;;;;;;;;;;;;;;;5.30;93.48;97773.44;5025430;28;20296;-79
2021/03/12 01:44:03;;;;;;;;;;;;;;;5.42;92.32;97765.38;5031325;28;19917;-80
2021/03/12 01:46:29;;;;;;;;;;;;;;;5.33;93.35;97778.44;5008940;28;20016;-79
2021/03/12 01:48:54;;;;;;;;;;;;;;;5.55;92.47;97785.44;5051214;28;20143;-80
2021/03/12 01:51:19;;;;;;;;;;;;;;;5.20;93.15;97780.53;5006180;28;19921;-79
2021/03/12 01:53:45;;;;;;;;;;;;;;;5.38;94.06;97791.03;5024303;28;20329;-82
2021/03/12 01:56:10;;;;;;;;;;;;;;;5.26;94.96;97784.59;5033843;28;19917;-81
2021/03/12 01:58:36;;;;;;;;;;;;;;;5.16;95.11;97793.44;5049010;28;19912;-79
2021/03/12 02:01:01;;;;;;;;;;;;;;;5.25;95.34;97793.16;5031711;28;19917;-79
2021/03/12 02:03:27;;;;;;;;;;;;;;;5.20;95.23;97789.88;5049890;28;20008;-79
2021/03/12 02:05:53;;;;;;;;;;;;;;;5.30;95.39;97793.84;5047635;28;19999;-80
2021/03/12 02:08:19;;;;;;;;;;;;;;;5.16;96.34;97804.47;5047447;28;20706;-78
2021/03/12 02:10:44;;;;;;;;;;;;;;;5.20;96.03;97816.25;5009060;28;19916;-80
2021/03/12 02:13:31;;;;;;;;;;;;;;;4.91;98.76;97818.81;5013135;28;19920;-81
2021/03/12 02:16:09;;;;;;;;;;;;;;;4.90;99.43;97823.06;5030260;28;20870;-80
2021/03/12 02:18:36;;;;;;;;;;;;;;;4.73;99.81;97827.81;5013987;28;19916;-81
2021/03/12 02:21:04;;;;;;;;;;;;;;;4.35;100.00;97861.06;5014411;28;19912;-80
2021/03/12 02:23:36;;;;;;;;;;;;;;;4.75;100.00;97894.91;5048210;28;19932;-84
2021/03/12 02:26:06;;;;;;;;;;;;;;;-144.34;100.00;60189.88;5051280;28;20660;-84
2021/03/12 02:28:32;;;;;;;;;;;;;;;3.58;100.00;97839.19;5008841;28;20011;-81
2021/03/12 02:30:57;;;;;;;;;;;;;;;3.92;100.00;97862.16;5025256;28;20015;-80
2021/03/12 02:33:23;;;;;;;;;;;;;;;3.63;100.00;97875.53;5027082;28;19928;-81
2021/03/12 02:35:51;;;;;;;;;;;;;;;3.49;100.00;97880.06;5011977;28;19985;-83
2021/03/12 02:38:17;;;;;;;;;;;;;;;3.51;100.00;97891.94;5037438;28;20991;-80
2021/03/12 02:40:42;;;;;;;;;;;;;;;3.63;100.00;97880.63;5028344;28;19928;-81
2021/03/12 02:43:08;;;;;;;;;;;;;;;-144.34;100.00;60189.88;5054468;28;19928;-85
2021/03/12 02:45:34;;;;;;;;;;;;;;;-144.34;100.00;60189.88;5034264;28;19969;-83
2021/03/12 02:47:59;;;;;;;;;;;;;;;-144.34;100.00;60189.88;5012342;28;19924;-82
2021/03/12 02:50:25;;;;;;;;;;;;;;;2.77;100.00;97889.16;5000223;28;19913;-82
2021/03/12 02:52:50;;;;;;;;;;;;;;;2.83;100.00;97886.50;5053304;28;19952;-83
2021/03/12 02:55:16;;;;;;;;;;;;;;;2.88;100.00;97893.19;5013131;28;20146;-81
2021/03/12 02:57:41;;;;;;;;;;;;;;;3.12;100.00;97894.44;5038992;28;19921;-80
2021/03/12 03:00:07;;;;;;;;;;;;;;;3.26;100.00;97904.31;5053310;28;19924;-79
2021/03/12 03:02:32;;;;;;;;;;;;;;;3.49;100.00;97897.91;5038723;28;20336;-78
2021/03/12 03:04:58;;;;;;;;;;;;;;;3.65;100.00;97899.25;5038833;28;19947;-82
2021/03/12 03:07:24;;;;;;;;;;;;;;;3.76;100.00;97896.44;5037678;28;19942;-83
2021/03/12 03:09:49;;;;;;;;;;;;;;;3.72;100.00;97895.69;5014356;28;20991;-82
2021/03/12 03:12:16;;;;;;;;;;;;;;;3.69;100.00;97902.56;5031667;28;19927;-84
2021/03/12 03:14:41;;;;;;;;;;;;;;;3.68;100.00;97904.28;5014200;28;19963;-82
2021/03/12 03:17:07;;;;;;;;;;;;;;;3.88;100.00;97895.38;5054210;28;19947;-83
2021/03/12 03:19:33;;;;;;;;;;;;;;;3.91;100.00;97915.66;5023003;28;20362;-82
2021/03/12 03:21:58;;;;;;;;;;;;;;;3.89;100.00;97932.69;5056195;28;19928;-82
2021/03/12 03:24:24;;;;;;;;;;;;;;;3.78;100.00;97949.03;5052128;28;20473;-79
2021/03/12 03:26:50;;;;;;;;;;;;;;;-144.34;100.00;60189.88;5030657;28;19916;-84
2021/03/12 03:29:15;;;;;;;;;;;;;;;-144.34;100.00;60189.88;5052906;28;20518;-84
2021/03/12 03:31:40;;;;;;;;;;;;;;;2.41;100.00;97950.78;5031733;28;20018;-83
2021/03/12 03:34:06;;;;;;;;;;;;;;;2.69;100.00;97942.69;5038804;28;19975;-82
2021/03/12 03:36:31;;;;;;;;;;;;;;;3.08;100.00;97942.81;5037111;28;19974;-81
2021/03/12 03:38:57;;;;;;;;;;;;;;;3.24;100.00;97948.44;5012528;28;20433;-83
2021/03/12 03:41:22;;;;;;;;;;;;;;;3.47;100.00;97940.38;5022093;28;19917;-82
2021/03/12 03:43:48;;;;;;;;;;;;;;;3.78;100.00;97949.03;5052358;28;19920;-82
2021/03/12 03:46:14;;;;;;;;;;;;;;;3.56;100.00;97952.91;5020083;28;19949;-79
2021/03/12 03:48:39;;;;;;;;;;;;;;;3.75;100.00;97961.84;5052852;28;20325;-79
2021/03/12 03:51:12;;;;;;;;;;;;;;;3.57;100.00;97952.03;5050391;28;19928;-80
2021/03/12 03:53:38;;;;;;;;;;;;;;;3.80;100.00;97963.44;5053985;28;19932;-80
2021/03/12 03:56:03;;;;;;;;;;;;;;;3.78;100.00;97971.94;5032905;28;20382;-81
2021/03/12 03:58:29;;;;;;;;;;;;;;;3.67;100.00;97970.50;5037231;28;19917;-82
2021/03/12 04:00:54;;;;;;;;;;;;;;;3.59;100.00;97980.84;5052138;28;20407;-81
2021/03/12 04:03:20;;;;;;;;;;;;;;;3.77;100.00;97988.09;5027329;28;19917;-81
2021/03/12 04:05:46;;;;;;;;;;;;;;;3.90;100.00;97983.59;5035676;28;19962;-80
2021/03/12 04:08:11;;;;;;;;;;;;;;;3.76;100.00;97976.25;5034810;28;19939;-80
2021/03/12 04:10:36;;;;;;;;;;;;;;;3.98;100.00;97980.88;5036880;28;19920;-79
2021/03/12 04:13:02;;;;;;;;;;;;;;;4.10;100.00;97977.22;5050960;28;19963;-80
2021/03/12 04:15:27;;;;;;;;;;;;;;;4.14;100.00;97974.56;5054816;28;19916;-80
2021/03/12 04:17:53;;;;;;;;;;;;;;;4.03;100.00;97953.59;5025099;28;19927;-82
2021/03/12 04:20:18;;;;;;;;;;;;;;;4.23;100.00;97993.06;5052882;28;19943;-80
2021/03/12 04:22:44;;;;;;;;;;;;;;;4.14;100.00;97989.84;5053521;28;19924;-82
2021/03/12 04:25:09;;;;;;;;;;;;;;;4.29;100.00;98006.53;5027002;28;20384;-81
2021/03/12 04:27:35;;;;;;;;;;;;;;;4.27;100.00;98015.06;5051775;28;19923;-81
2021/03/12 04:30:00;;;;;;;;;;;;;;;4.51;99.31;98003.47;5036331;28;20328;-80
2021/03/12 04:32:26;;;;;;;;;;;;;;;4.25;99.95;98011.72;5017636;28;19920;-80
2021/03/12 04:34:51;;;;;;;;;;;;;;;4.37;99.89;98016.53;5050556;28;20043;-79
2021/03/12 04:37:16;;;;;;;;;;;;;;;4.36;99.82;98015.69;5049916;28;20989;-81
2021/03/12 04:39:42;;;;;;;;;;;;;;;4.32;99.13;98013.25;5051744;28;19924;-80
2021/03/12 04:42:07;;;;;;;;;;;;;;;4.45;99.26;98014.66;5051689;28;19969;-79
2021/03/12 04:44:35;;;;;;;;;;;;;;;4.29;99.46;98014.16;5036871;28;20007;-82
2021/03/12 04:47:00;;;;;;;;;;;;;;;4.30;99.00;98023.47;5019510;28;19917;-78
2021/03/12 04:49:25;;;;;;;;;;;;;;;4.21;98.85;98021.13;5020189;28;20385;-80
2021/03/12 04:51:51;;;;;;;;;;;;;;;4.18;99.20;98019.50;5050548;28;19943;-82
2021/03/12 04:54:16;;;;;;;;;;;;;;;4.16;98.78;98023.78;5034379;28;20448;-81
2021/03/12 04:56:42;;;;;;;;;;;;;;;4.17;97.85;98022.94;5034465;28;20273;-82
2021/03/12 04:59:08;;;;;;;;;;;;;;;4.28;98.44;98029.47;5033954;28;19920;-83
2021/03/12 05:01:33;;;;;;;;;;;;;;;4.36;98.07;98022.50;5018365;28;19929;-82
2021/03/12 05:03:59;;;;;;;;;;;;;;;4.28;96.99;98032.84;5036599;28;19916;-79
2021/03/12 05:06:24;;;;;;;;;;;;;;;4.17;97.08;98033.13;5028181;28;19975;-78
2021/03/12 05:08:50;;;;;;;;;;;;;;;4.17;97.05;98040.75;5037125;28;19925;-82
2021/03/12 05:11:15;;;;;;;;;;;;;;;4.32;96.12;98043.84;5016833;28;19970;-82
2021/03/12 05:13:40;;;;;;;;;;;;;;;4.28;95.30;98049.88;5036626;28;19921;-82
2021/03/12 05:16:06;;;;;;;;;;;;;;;4.15;96.25;98054.38;5019136;28;19971;-79
2021/03/12 05:18:31;;;;;;;;;;;;;;;4.25;95.46;98067.78;5020907;28;19920;-78
2021/03/12 05:20:57;;;;;;;;;;;;;;;4.25;95.07;98066.06;5053464;28;19917;-81
2021/03/12 05:23:22;;;;;;;;;;;;;;;4.40;94.87;98062.31;5028854;28;19925;-80
2021/03/12 05:25:48;;;;;;;;;;;;;;;4.34;95.38;98073.50;5054553;28;19924;-81
2021/03/12 05:28:13;;;;;;;;;;;;;;;4.28;95.52;98078.72;5051874;28;19917;-79
2021/03/12 05:30:39;;;;;;;;;;;;;;;4.20;95.25;98080.63;5035334;28;19917;-77
2021/03/12 05:33:04;;;;;;;;;;;;;;;4.31;94.83;98085.47;5033602;28;19916;-80
2021/03/12 05:35:29;;;;;;;;;;;;;;;4.34;95.26;98068.41;5036164;28;19962;-78
2021/03/12 05:37:55;;;;;;;;;;;;;;;4.34;95.42;98088.81;5052692;28;20067;-79
2021/03/12 05:40:20;;;;;;;;;;;;;;;4.30;95.49;98091.47;5050044;28;19916;-80
2021/03/12 05:42:46;;;;;;;;;;;;;;;4.61;94.44;98089.91;5033475;28;19921;-80
2021/03/12 05:45:11;;;;;;;;;;;;;;;4.46;95.08;98103.00;5034753;28;19974;-81
2021/03/12 05:47:37;;;;;;;;;;;;;;;4.58;95.35;98096.78;5037411;28;20801;-80
2021/03/12 05:50:03;;;;;;;;;;;;;;;4.46;96.69;98105.53;5035028;28;20271;-77
2021/03/12 05:52:29;;;;;;;;;;;;;;;4.71;96.22;98097.34;5053146;28;20484;-80
2021/03/12 05:54:54;;;;;;;;;;;;;;;4.51;97.31;98108.81;5034922;28;20035;-79
2021/03/12 05:57:20;;;;;;;;;;;;;;;4.49;97.33;98115.66;5053168;28;20547;-80
2021/03/12 05:59:46;;;;;;;;;;;;;;;4.64;96.59;98114.50;5022155;28;20302;-78
2021/03/12 06:02:11;;;;;;;;;;;;;;;4.67;96.42;98111.03;5038071;28;19917;-79
2021/03/12 06:04:37;;;;;;;;;;;;;;;4.66;96.63;98114.47;5033416;28;19921;-79
2021/03/12 06:07:02;;;;;;;;;;;;;;;4.61;95.94;98107.75;5046197;28;20032;-78
2021/03/12 06:09:27;;;;;;;;;;;;;;;4.70;96.23;98119.47;5012465;28;20295;-76
2021/03/12 06:11:54;;;;;;;;;;;;;;;4.43;97.06;98122.63;5056312;28;19912;-79
2021/03/12 06:14:19;;;;;;;;;;;;;;;4.45;96.62;98118.31;5037317;28;19923;-79
2021/03/12 06:16:48;;;;;;;;;;;;;;;4.56;96.51;98119.78;5038118;28;20286;-80
2021/03/12 06:19:15;;;;;;;;;;;;;;;4.39;96.67;98119.28;5020200;28;20533;-81
2021/03/12 06:21:42;;;;;;;;;;;;;;;4.33;96.19;98132.16;5052145;28;20358;-78
2021/03/12 06:24:26;;;;;;;;;;;;;;;4.30;96.35;98111.84;5034962;28;19921;-80
2021/03/12 06:26:51;;;;;;;;;;;;;;;4.64;94.58;98116.22;5052318;28;20397;-79
2021/03/12 06:29:16;;;;;;;;;;;;;;;4.59;94.15;98124.81;5018887;28;19921;-81
2021/03/12 06:31:49;;;;;;;;;;;;;;;4.56;94.53;98119.78;5019426;28;20289;-78
2021/03/12 06:34:14;;;;;;;;;;;;;;;4.66;93.32;98133.16;5019356;28;19920;-81
2021/03/12 06:36:42;;;;;;;;;;;;;;;4.46;93.48;98120.00;5039164;28;19928;-76
2021/03/12 06:39:07;;;;;;;;;;;;;;;4.58;94.07;98130.78;5055073;28;19912;-79
2021/03/12 06:41:37;;;;;;;;;;;;;;;4.40;93.77;98126.06;5033150;28;19921;-78
2021/03/12 06:44:21;;;;;;;;;;;;;;;4.66;93.03;98128.06;5050459;28;19959;-79
2021/03/12 06:46:46;;;;;;;;;;;;;;;4.45;92.51;98128.50;5051754;28;20440;-78
2021/03/12 06:49:11;;;;;;;;;;;;;;;4.28;92.40;98133.97;5036093;28;20010;-77
2021/03/12 06:51:51;;;;;;;;;;;;;;;4.43;91.79;98126.00;5032428;28;19943;-78
2021/03/12 06:54:16;;;;;;;;;;;;;;;4.49;92.50;98132.69;5036166;28;20746;-77
2021/03/12 06:56:42;;;;;;;;;;;;;;;4.40;91.98;98123.50;5038059;28;19917;-78
2021/03/12 06:59:07;;;;;;;;;;;;;;;4.39;92.10;98137.97;5019433;28;19917;-78
2021/03/12 07:01:33;;;;;;;;;;;;;;;4.40;92.27;98149.00;5031529;28;19921;-79
2021/03/12 07:04:11;;;;;;;;;;;;;;;4.51;90.78;98147.06;5021000;28;20400;-78
2021/03/12 07:06:44;;;;;;;;;;;;;;;4.65;89.85;98164.63;5038036;28;19921;-79
2021/03/12 07:09:09;;;;;;;;;;;;;;;4.83;90.52;98153.16;5053605;28;19927;-77
2021/03/12 07:11:34;;;;;;;;;;;;;;;4.82;90.54;98143.84;5035704;28;19916;-78
2021/03/12 07:14:00;;;;;;;;;;;;;;;4.85;89.84;98153.16;5043993;28;20044;-78
2021/03/12 07:16:25;;;;;;;;;;;;;;;4.77;90.59;98153.34;5037291;28;19921;-80
2021/03/12 07:18:51;;;;;;;;;;;;;;;4.98;89.99;98145.19;5017914;28;20385;-80
2021/03/12 07:21:17;;;;;;;;;;;;;;;5.10;89.92;98153.41;5052629;28;19921;-79
2021/03/12 07:23:46;;;;;;;;;;;;;;;5.09;89.39;98152.59;5035733;28;19916;-82
2021/03/12 07:26:15;;;;;;;;;;;;;;;4.82;89.84;98162.53;5053724;28;19986;-79
2021/03/12 07:28:41;;;;;;;;;;;;;;;5.13;90.54;98153.34;5030425;28;19916;-81
2021/03/12 07:31:09;;;;;;;;;;;;;;;5.17;90.33;98152.41;5012873;28;21418;-78
2021/03/12 07:33:35;;;;;;;;;;;;;;;5.16;89.97;98146.47;5050526;28;19973;-77
2021/03/12 07:36:04;;;;;;;;;;;;;;;5.12;90.70;98149.94;5031701;28;19917;-81
2021/03/12 07:38:34;;;;;;;;;;;;;;;5.22;89.78;98165.88;5032954;28;19920;-78
2021/03/12 07:41:01;;;;;;;;;;;;;;;5.07;89.85;98161.16;5030289;28;20214;-80
2021/03/12 07:43:26;;;;;;;;;;;;;;;5.57;88.71;98171.88;5035726;28;20753;-81
2021/03/12 07:45:52;;;;;;;;;;;;;;;5.36;89.76;98171.50;5035122;28;19989;-76
2021/03/12 07:48:17;;;;;;;;;;;;;;;5.42;89.36;98173.91;5034929;28;19912;-77
2021/03/12 07:50:43;;;;;;;;;;;;;;;5.65;88.38;98159.72;5050073;28;19916;-79
2021/03/12 07:53:08;;;;;;;;;;;;;;;5.36;89.54;98174.06;5050142;28;20461;-77
2021/03/12 07:55:37;;;;;;;;;;;;;;;5.34;89.71;98170.72;5049581;28;20303;-78
2021/03/12 07:58:03;;;;;;;;;;;;;;;5.57;89.03;98171.88;5047445;28;19916;-81
2021/03/12 08:00:28;;;;;;;;;;;;;;;5.50;88.64;98165.22;5030235;28;19921;-79
2021/03/12 08:03:01;;;;;;;;;;;;;;;5.59;87.24;98170.09;5029681;28;19935;-80
2021/03/12 08:05:37;;;;;;;;;;;;;;;5.30;87.86;98178.47;5034122;28;20706;-78
2021/03/12 08:08:03;;;;;;;;;;;;;;;5.58;87.27;98178.63;5032440;28;19958;-77
2021/03/12 08:10:28;;;;;;;;;;;;;;;5.81;86.76;98176.31;5031792;28;19924;-79
2021/03/12 08:12:54;;;;;;;;;;;;;;;5.91;86.68;98186.28;5015102;28;19916;-79
2021/03/12 08:47:04;;;;;;;;;;;;;;;6.49;81.71;98184.75;5052867;28;19974;-79
2021/03/12 08:49:30;;;;;;;;;;;;;;;6.63;82.46;98195.41;4991872;28;20449;-77
2021/03/12 08:51:55;;;;;;;;;;;;;;;7.17;80.99;98183.56;4993298;28;19917;-80
2021/03/12 08:54:27;;;;;;;;;;;;;;;7.50;80.25;98188.47;5011560;28;19943;-78
2021/03/12 08:56:52;;;;;;;;;;;;;;;6.88;79.91;98197.25;4995860;28;19927;-79
2021/03/12 08:59:25;;;;;;;;;;;;;;;7.08;79.72;98191.53;5029339;28;19917;-77
2021/03/12 09:01:57;;;;;;;;;;;;;;;7.27;78.59;98184.09;5027905;28;19952;-79
2021/03/12 09:04:28;;;;;;;;;;;;;;;7.37;78.70;98188.06;5027265;28;19921;-79
2021/03/12 09:06:53;;;;;;;;;;;;;;;7.44;78.94;98186.13;5010722;28;20083;-80
2021/03/12 09:09:18;;;;;;;;;;;;;;;7.64;78.63;98183.75;5027164;28;20043;-80
2021/03/12 09:11:44;;;;;;;;;;;;;;;7.87;76.76;98180.41;5004963;28;20098;-79
2021/03/12 09:14:10;;;;;;;;;;;;;;;7.38;75.91;98182.03;5013064;28;19995;-78
2021/03/12 09:16:40;;;;;;;;;;;;;;;7.43;76.88;98187.00;5012117;28;19990;-77
2021/03/12 09:19:11;;;;;;;;;;;;;;;7.59;77.71;98180.50;4988203;28;19917;-78
2021/03/12 09:21:36;;;;;;;;;;;;;;;7.63;77.02;98186.38;5011959;28;19916;-79
2021/03/12 09:24:02;;;;;;;;;;;;;;;7.59;77.18;98188.19;5027262;28;19967;-79
2021/03/12 09:26:27;;;;;;;;;;;;;;;7.92;76.34;98187.94;4989868;28;19917;-78
2021/03/12 09:28:54;;;;;;;;;;;;;;;7.47;77.53;98176.63;5013809;28;19917;-78
2021/03/12 09:31:21;;;;;;;;;;;;;;;7.70;77.77;98180.16;5004085;28;19921;-78
2021/03/12 09:33:51;;;;;;;;;;;;;;;7.42;77.44;98188.75;5029536;28;19936;-77
2021/03/12 09:36:25;;;;;;;;;;;;;;;7.67;77.61;98168.28;5029229;28;19960;-78
2021/03/12 09:38:51;;;;;;;;;;;;;;;7.69;76.10;98183.59;5028373;28;19932;-77
2021/03/12 09:41:18;;;;;;;;;;;;;;;7.82;75.99;98182.28;5030131;28;19917;-77
2021/03/12 09:44:02;;;;;;;;;;;;;;;8.14;75.05;98178.63;5013119;28;19917;-76
2021/03/12 09:46:32;;;;;;;;;;;;;;;7.95;76.31;98175.84;5033178;28;19970;-77
2021/03/12 09:48:58;;;;;;;;;;;;;;;7.22;74.52;98170.63;5030446;28;19937;-78
2021/03/12 09:51:24;;;;;;;;;;;;;;;7.31;74.99;98175.44;5024575;28;19921;-77
2021/03/12 09:53:50;;;;;;;;;;;;;;;8.46;73.59;98168.97;4999215;28;19932;-77
2021/03/12 09:56:15;;;;;;;;;;;;;;;8.40;73.47;98176.03;4995127;28;19923;-77
2021/03/12 09:58:41;;;;;;;;;;;;;;;8.09;74.00;98172.78;5013999;28;20406;-77
2021/03/12 10:01:10;;;;;;;;;;;;;;;8.47;74.96;98160.38;5012686;28;19932;-78
2021/03/12 10:03:36;;;;;;;;;;;;;;;8.74;72.85;98168.75;4988194;28;19927;-78
2021/03/12 10:06:06;;;;;;;;;;;;;;;8.43;72.65;98157.97;4996447;28;19921;-78
2021/03/12 10:08:31;;;;;;;;;;;;;;;8.38;72.15;98156.38;4991082;28;19925;-77
2021/03/12 10:10:56;;;;;;;;;;;;;;;7.50;73.35;98166.28;5003786;28;20035;-77
2021/03/12 10:13:24;;;;;;;;;;;;;;;7.89;72.28;98163.25;5001873;28;20393;-77
2021/03/12 10:15:50;;;;;;;;;;;;;;;8.33;71.93;98167.72;4986930;28;19917;-77
2021/03/12 10:18:22;;;;;;;;;;;;;;;9.03;70.92;98150.53;4988893;28;19920;-78
2021/03/12 10:20:47;;;;;;;;;;;;;;;8.48;70.95;98148.38;5004589;28;20004;-78
2021/03/12 10:23:14;;;;;;;;;;;;;;;8.13;71.44;98163.28;5004468;28;20039;-77
2021/03/12 10:25:44;;;;;;;;;;;;;;;7.87;71.92;98149.66;4998430;28;19917;-78
2021/03/12 10:28:11;;;;;;;;;;;;;;;8.61;70.88;98141.88;4999676;28;19917;-79
2021/03/12 10:30:41;;;;;;;;;;;;;;;8.74;70.51;98137.13;5001326;28;19928;-77
2021/03/12 10:33:07;;;;;;;;;;;;;;;8.46;71.03;98134.75;5008859;28;19917;-78
2021/03/12 10:35:34;;;;;;;;;;;;;;;8.46;71.58;98127.06;5026318;28;19975;-79
2021/03/12 10:38:05;;;;;;;;;;;;;;;8.94;70.42;98102.94;4986170;28;19923;-78
2021/03/12 10:40:40;;;;;;;;;;;;;;;9.18;69.24;98112.25;5024529;28;20000;-77
2021/03/12 10:43:10;;;;;;;;;;;;;;;8.78;70.25;98116.41;5012660;28;20057;-78
2021/03/12 10:45:35;;;;;;;;;;;;;;;8.50;70.58;98123.47;5029366;28;19917;-79
2021/03/12 10:48:02;;;;;;;;;;;;;;;8.66;70.77;98114.31;5033751;28;19921;-78
2021/03/12 10:50:28;;;;;;;;;;;;;;;8.74;68.67;98114.84;5027046;28;19938;-78
2021/03/12 10:53:13;;;;;;;;;;;;;;;8.32;70.05;98120.66;5029670;28;20007;-78
2021/03/12 10:55:42;;;;;;;;;;;;;;;8.47;67.61;98118.47;5015491;28;19973;-77
2021/03/12 10:58:20;;;;;;;;;;;;;;;9.00;66.33;98095.84;5049368;28;19924;-79
2021/03/12 11:00:45;;;;;;;;;;;;;;;8.30;67.60;98088.28;5028739;28;19940;-78
2021/03/12 11:03:11;;;;;;;;;;;;;;;8.98;70.86;98083.97;5031482;28;19917;-78
2021/03/12 11:05:36;;;;;;;;;;;;;;;8.79;65.53;98087.25;5027890;28;20591;-77
2021/03/12 11:08:01;;;;;;;;;;;;;;;8.33;67.84;98088.19;5047441;28;20390;-77
2021/03/12 11:10:27;;;;;;;;;;;;;;;8.97;66.18;98080.56;5048588;28;19921;-78
2021/03/12 11:12:53;;;;;;;;;;;;;;;9.27;67.96;98079.38;5029436;28;19916;-77
2021/03/12 11:15:19;;;;;;;;;;;;;;;8.79;66.83;98082.13;5027291;28;20386;-78
2021/03/12 11:17:45;;;;;;;;;;;;;;;10.01;65.24;98079.59;5014656;28;21143;-78
2021/03/12 11:20:15;;;;;;;;;;;;;;;9.50;65.59;98092.09;5046972;28;19924;-78
2021/03/12 11:22:40;;;;;;;;;;;;;;;9.77;65.64;98073.81;5048568;28;19988;-78
2021/03/12 11:25:06;;;;;;;;;;;;;;;9.28;65.70;98075.91;5047822;28;20019;-78
2021/03/12 11:27:32;;;;;;;;;;;;;;;9.07;66.30;98077.63;5048733;28;19922;-78
2021/03/12 11:30:01;;;;;;;;;;;;;;;9.92;67.47;98075.72;5048443;28;19931;-78
2021/03/12 11:32:26;;;;;;;;;;;;;;;10.32;67.76;98073.94;5029363;28;20000;-78
2021/03/12 11:34:53;;;;;;;;;;;;;;;10.59;63.15;98069.28;5047340;28;20023;-78
2021/03/12 11:37:18;;;;;;;;;;;;;;;10.01;63.86;98077.91;5047761;28;19965;-78
2021/03/12 11:39:43;;;;;;;;;;;;;;;9.43;63.93;98077.84;5048132;28;19921;-78
2021/03/12 11:42:09;;;;;;;;;;;;;;;9.48;64.88;98067.34;5029899;28;19917;-77
2021/03/12 11:44:34;;;;;;;;;;;;;;;9.81;64.28;98058.19;5012812;28;19966;-76
2021/03/12 11:47:00;;;;;;;;;;;;;;;9.92;65.68;98047.44;5031550;28;19925;-77
2021/03/12 11:49:25;;;;;;;;;;;;;;;9.96;63.94;98053.25;5030342;28;19921;-77
2021/03/12 11:51:53;;;;;;;;;;;;;;;9.86;64.61;98052.03;5031412;28;19924;-77
2021/03/12 11:54:18;;;;;;;;;;;;;;;9.39;65.87;98058.31;5031913;28;19920;-78
2021/03/12 11:56:44;;;;;;;;;;;;;;;10.12;64.81;98054.25;5047403;28;20255;-78
2021/03/12 11:59:11;;;;;;;;;;;;;;;9.69;61.51;98055.31;5012877;28;20036;-78
2021/03/12 12:01:37;;;;;;;;;;;;;;;10.08;61.66;98050.16;5048739;28;19916;-78
2021/03/12 12:04:03;;;;;;;;;;;;;;;10.63;63.44;98029.59;5028332;28;20321;-79
2021/03/12 12:06:28;;;;;;;;;;;;;;;10.57;63.12;98036.78;5030253;28;20019;-78
2021/03/12 12:08:54;;;;;;;;;;;;;;;9.67;63.23;98046.81;5013143;28;19927;-77
2021/03/12 12:11:19;;;;;;;;;;;;;;;10.41;64.99;98034.09;5012647;28;19917;-77
2021/03/12 12:13:44;;;;;;;;;;;;;;;10.26;63.12;98025.31;5049133;28;19924;-79
2021/03/12 12:16:10;;;;;;;;;;;;;;;10.42;60.32;98034.03;5011790;28;19931;-78
2021/03/12 12:18:35;;;;;;;;;;;;;;;9.89;60.96;98037.28;5022157;28;19995;-78
2021/03/12 12:21:01;;;;;;;;;;;;;;;10.22;64.27;98022.06;5031253;28;20398;-78
2021/03/12 12:23:26;;;;;;;;;;;;;;;10.68;61.49;98016.50;5046323;28;19959;-79
2021/03/12 12:25:52;;;;;;;;;;;;;;;10.31;60.13;98007.97;5032863;28;20371;-79
2021/03/12 12:28:17;;;;;;;;;;;;;;;10.08;58.47;98019.28;5020359;28;20470;-79
2021/03/12 12:30:43;;;;;;;;;;;;;;;10.44;59.67;98014.19;5032812;28;19975;-80
2021/03/12 12:33:08;;;;;;;;;;;;;;;10.54;59.90;97994.00;5049682;28;20369;-79
2021/03/12 12:35:34;;;;;;;;;;;;;;;10.30;63.37;97996.00;5048842;28;19917;-80
2021/03/12 12:37:59;;;;;;;;;;;;;;;10.41;58.39;97993.75;5050517;28;19917;-79
2021/03/12 12:40:25;;;;;;;;;;;;;;;10.68;59.68;97990.75;5022836;28;19921;-79
2021/03/12 12:42:50;;;;;;;;;;;;;;;10.66;62.79;97977.13;5045078;28;19913;-79
2021/03/12 12:45:16;;;;;;;;;;;;;;;10.53;62.64;97969.16;5014424;28;19917;-79
2021/03/12 12:47:42;;;;;;;;;;;;;;;10.41;61.08;97978.28;5024235;28;20295;-79
2021/03/12 12:50:08;;;;;;;;;;;;;;;10.19;61.23;97969.88;5040610;28;19924;-78
2021/03/12 12:52:33;;;;;;;;;;;;;;;10.16;57.51;97962.31;5015618;28;19921;-79
2021/03/12 12:55:00;;;;;;;;;;;;;;;10.92;61.47;97957.78;5009844;28;19921;-81
2021/03/12 12:57:26;;;;;;;;;;;;;;;9.67;60.13;97954.28;5041344;28;19921;-79
2021/03/12 12:59:52;;;;;;;;;;;;;;;9.86;60.64;97952.56;5014415;28;20370;-78
2021/03/12 13:02:18;;;;;;;;;;;;;;;10.30;62.61;97944.53;5015176;28;19996;-78
2021/03/12 13:04:43;;;;;;;;;;;;;;;10.83;62.57;97946.22;5028916;28;19928;-78
2021/03/12 13:07:08;;;;;;;;;;;;;;;10.18;63.48;97935.63;5011346;28;20051;-78
2021/03/12 13:09:34;;;;;;;;;;;;;;;10.55;62.63;97951.06;5005738;28;19913;-78
2021/03/12 13:11:59;;;;;;;;;;;;;;;10.60;59.00;97947.34;5010593;28;20332;-79
2021/03/12 13:14:25;;;;;;;;;;;;;;;10.23;60.53;97937.97;5022328;28;19916;-79
2021/03/12 13:16:50;;;;;;;;;;;;;;;10.93;66.13;97938.88;5039495;28;19916;-78
2021/03/12 13:19:15;;;;;;;;;;;;;;;10.61;65.01;97935.31;5027390;28;20003;-79
2021/03/12 13:21:42;;;;;;;;;;;;;;;10.14;63.15;97928.94;5011245;28;19920;-78